sensor_id;sensor_type;location;lat;lon;timestamp;P1;durP1;ratioP1;P2;durP2;ratioP2
2438;SDS011;14509;47.992;7.848;2023-05-09T05:24:44;2.97;;;2.70;;
2438;SDS011;14509;47.992;7.848;2023-05-09T05:26:47;4.20;;;3.80;;
2438;SDS011;14509;47.992;7.848;2023-05-09T05:28:50;3.10;;;2.80;;
2438;SDS011;14509;47.992;7.848;2023-05-09T05:30:54;5.10;;;3.50;;
2438;SDS011;14509;47.992;7.848;2023-05-09T05:32:56;3.90;;;3.10;;
2438;SDS011;14509;47.992;7.848;2023-05-09T05:35:00;2.40;;;2.20;;
2438;SDS011;14509;47.992;7.848;2023-05-09T05:37:04;4.13;;;3.20;;
2438;SDS011;14509;47.992;7.848;2023-05-09T05:39:06;4.17;;;3.77;;
2438;SDS011;14509;47.992;7.848;2023-05-09T05:41:10;4.20;;;3.20;;
2438;SDS011;14509;47.992;7.848;2023-05-09T05:43:15;3.07;;;2.83;;
2438;SDS011;14509;47.992;7.848;2023-05-09T05:45:18;4.00;;;3.03;;
2438;SDS011;14509;47.992;7.848;2023-05-09T05:47:23;3.77;;;2.97;;
2438;SDS011;14509;47.992;7.848;2023-05-09T05:49:26;4.10;;;3.00;;
2438;SDS011;14509;47.992;7.848;2023-05-09T05:51:28;4.10;;;3.50;;
2438;SDS011;14509;47.992;7.848;2023-05-09T05:53:31;3.17;;;2.97;;
2438;SDS011;14509;47.992;7.848;2023-05-09T05:55:33;4.00;;;3.20;;
2438;SDS011;14509;47.992;7.848;2023-05-09T05:57:37;4.60;;;2.70;;
2438;SDS011;14509;47.992;7.848;2023-05-09T05:59:41;3.07;;;2.27;;
2438;SDS011;14509;47.992;7.848;2023-05-09T06:01:44;3.00;;;2.77;;
2438;SDS011;14509;47.992;7.848;2023-05-09T06:03:46;2.30;;;2.10;;
2438;SDS011;14509;47.992;7.848;2023-05-09T06:05:54;3.50;;;3.20;;
2438;SDS011;14509;47.992;7.848;2023-05-09T06:07:56;3.53;;;3.00;;
2438;SDS011;14509;47.992;7.848;2023-05-09T06:09:58;3.80;;;2.97;;
2438;SDS011;14509;47.992;7.848;2023-05-09T06:12:00;2.53;;;2.33;;
2438;SDS011;14509;47.992;7.848;2023-05-09T06:14:05;4.10;;;3.70;;
2438;SDS011;14509;47.992;7.848;2023-05-09T06:16:07;2.67;;;2.47;;
2438;SDS011;14509;47.992;7.848;2023-05-09T06:18:10;2.87;;;2.57;;
2438;SDS011;14509;47.992;7.848;2023-05-09T06:20:12;5.40;;;4.73;;
2438;SDS011;14509;47.992;7.848;2023-05-09T06:22:14;4.53;;;2.70;;
2438;SDS011;14509;47.992;7.848;2023-05-09T06:24:16;2.67;;;2.47;;
2438;SDS011;14509;47.992;7.848;2023-05-09T06:26:18;2.63;;;2.43;;
2438;SDS011;14509;47.992;7.848;2023-05-09T06:28:21;2.83;;;2.63;;
2438;SDS011;14509;47.992;7.848;2023-05-09T06:30:25;3.10;;;2.70;;
2438;SDS011;14509;47.992;7.848;2023-05-09T06:32:27;2.73;;;2.53;;
2438;SDS011;14509;47.992;7.848;2023-05-09T06:34:29;3.00;;;2.43;;
2438;SDS011;14509;47.992;7.848;2023-05-09T06:36:31;5.13;;;2.57;;
2438;SDS011;14509;47.992;7.848;2023-05-09T06:38:33;2.97;;;2.53;;
2438;SDS011;14509;47.992;7.848;2023-05-09T06:40:35;2.50;;;2.30;;
2438;SDS011;14509;47.992;7.848;2023-05-09T06:42:37;2.00;;;1.90;;
2438;SDS011;14509;47.992;7.848;2023-05-09T06:44:39;2.10;;;1.90;;
2438;SDS011;14509;47.992;7.848;2023-05-09T06:46:44;2.00;;;1.80;;
2438;SDS011;14509;47.992;7.848;2023-05-09T06:48:46;5.00;;;2.30;;
2438;SDS011;14509;47.992;7.848;2023-05-09T06:50:49;3.40;;;2.10;;
2438;SDS011;14509;47.992;7.848;2023-05-09T06:52:51;3.80;;;2.20;;
2438;SDS011;14509;47.992;7.848;2023-05-09T06:54:53;1.37;;;1.27;;
2438;SDS011;14509;47.992;7.848;2023-05-09T06:56:55;1.77;;;1.67;;
2438;SDS011;14509;47.992;7.848;2023-05-09T06:58:57;1.80;;;1.70;;
2438;SDS011;14509;47.992;7.848;2023-05-09T07:00:59;1.90;;;1.80;;
2438;SDS011;14509;47.992;7.848;2023-05-09T07:03:02;2.50;;;2.30;;
2438;SDS011;14509;47.992;7.848;2023-05-09T07:05:06;2.40;;;1.70;;
2438;SDS011;14509;47.992;7.848;2023-05-09T07:07:09;2.27;;;2.07;;
2438;SDS011;14509;47.992;7.848;2023-05-09T07:09:11;3.77;;;1.70;;
2438;SDS011;14509;47.992;7.848;2023-05-09T07:11:16;4.13;;;2.20;;
2438;SDS011;14509;47.992;7.848;2023-05-09T07:13:18;2.97;;;2.17;;
2438;SDS011;14509;47.992;7.848;2023-05-09T07:15:20;2.00;;;1.80;;
2438;SDS011;14509;47.992;7.848;2023-05-09T07:17:22;3.43;;;2.27;;
2438;SDS011;14509;47.992;7.848;2023-05-09T07:19:25;3.93;;;2.80;;
2438;SDS011;14509;47.992;7.848;2023-05-09T07:21:27;3.53;;;1.80;;
2438;SDS011;14509;47.992;7.848;2023-05-09T07:23:30;2.90;;;2.60;;
2438;SDS011;14509;47.992;7.848;2023-05-09T07:25:32;2.77;;;2.20;;
2438;SDS011;14509;47.992;7.848;2023-05-09T07:27:35;1.90;;;1.70;;
2438;SDS011;14509;47.992;7.848;2023-05-09T07:29:37;2.10;;;2.00;;
2438;SDS011;14509;47.992;7.848;2023-05-09T07:31:39;3.20;;;2.90;;
2438;SDS011;14509;47.992;7.848;2023-05-09T07:33:42;2.07;;;1.87;;
2438;SDS011;14509;47.992;7.848;2023-05-09T07:35:45;2.30;;;2.10;;
2438;SDS011;14509;47.992;7.848;2023-05-09T07:37:47;3.00;;;2.80;;
2438;SDS011;14509;47.992;7.848;2023-05-09T07:39:49;3.43;;;2.80;;
2438;SDS011;14509;47.992;7.848;2023-05-09T07:41:51;2.13;;;2.03;;
2438;SDS011;14509;47.992;7.848;2023-05-09T07:43:53;12.83;;;2.50;;
2438;SDS011;14509;47.992;7.848;2023-05-09T07:45:56;2.33;;;2.13;;
2438;SDS011;14509;47.992;7.848;2023-05-09T07:47:58;1.70;;;1.60;;
2438;SDS011;14509;47.992;7.848;2023-05-09T07:50:00;2.20;;;2.00;;
2438;SDS011;14509;47.992;7.848;2023-05-09T07:52:04;2.50;;;2.30;;
2438;SDS011;14509;47.992;7.848;2023-05-09T07:54:06;2.57;;;2.03;;
2438;SDS011;14509;47.992;7.848;2023-05-09T07:56:09;4.10;;;3.20;;
2438;SDS011;14509;47.992;7.848;2023-05-09T07:58:12;3.70;;;2.70;;
2438;SDS011;14509;47.992;7.848;2023-05-09T08:00:15;1.40;;;1.27;;
2438;SDS011;14509;47.992;7.848;2023-05-09T08:02:22;1.60;;;1.50;;
2438;SDS011;14509;47.992;7.848;2023-05-09T08:04:24;1.87;;;1.77;;
2438;SDS011;14509;47.992;7.848;2023-05-09T08:06:27;2.10;;;1.90;;
2438;SDS011;14509;47.992;7.848;2023-05-09T08:08:31;4.40;;;4.00;;
2438;SDS011;14509;47.992;7.848;2023-05-09T08:10:47;2.00;;;1.77;;
2438;SDS011;14509;47.992;7.848;2023-05-09T08:12:50;2.10;;;1.50;;
2438;SDS011;14509;47.992;7.848;2023-05-09T08:14:54;2.20;;;2.00;;
2438;SDS011;14509;47.992;7.848;2023-05-09T08:17:10;3.00;;;1.90;;
2438;SDS011;14509;47.992;7.848;2023-05-09T08:19:16;2.60;;;2.17;;
2438;SDS011;14509;47.992;7.848;2023-05-09T08:21:20;2.70;;;2.30;;
2438;SDS011;14509;47.992;7.848;2023-05-09T08:23:22;2.03;;;1.93;;
2438;SDS011;14509;47.992;7.848;2023-05-09T08:25:25;3.77;;;3.47;;
2438;SDS011;14509;47.992;7.848;2023-05-09T08:27:28;2.30;;;2.20;;
2438;SDS011;14509;47.992;7.848;2023-05-09T08:29:31;5.37;;;4.57;;
2438;SDS011;14509;47.992;7.848;2023-05-09T08:31:33;2.00;;;1.90;;
2438;SDS011;14509;47.992;7.848;2023-05-09T08:33:36;5.80;;;2.90;;
2438;SDS011;14509;47.992;7.848;2023-05-09T08:35:41;3.13;;;2.93;;
2438;SDS011;14509;47.992;7.848;2023-05-09T08:37:44;2.20;;;2.00;;
2438;SDS011;14509;47.992;7.848;2023-05-09T08:39:47;1.93;;;1.83;;
2438;SDS011;14509;47.992;7.848;2023-05-09T08:41:53;2.80;;;2.60;;
2438;SDS011;14509;47.992;7.848;2023-05-09T08:44:01;3.90;;;2.40;;
2438;SDS011;14509;47.992;7.848;2023-05-09T08:46:05;2.80;;;2.60;;
2438;SDS011;14509;47.992;7.848;2023-05-09T08:48:10;2.30;;;2.10;;
2438;SDS011;14509;47.992;7.848;2023-05-09T08:50:13;3.17;;;2.20;;
2438;SDS011;14509;47.992;7.848;2023-05-09T08:52:19;2.77;;;2.13;;
2438;SDS011;14509;47.992;7.848;2023-05-09T08:54:23;3.03;;;2.73;;
2438;SDS011;14509;47.992;7.848;2023-05-09T08:56:26;3.97;;;3.20;;
2438;SDS011;14509;47.992;7.848;2023-05-09T08:58:32;3.80;;;2.60;;
2438;SDS011;14509;47.992;7.848;2023-05-09T09:00:36;3.10;;;2.90;;
2438;SDS011;14509;47.992;7.848;2023-05-09T09:02:40;5.20;;;2.97;;
2438;SDS011;14509;47.992;7.848;2023-05-09T09:04:44;3.43;;;2.77;;
2438;SDS011;14509;47.992;7.848;2023-05-09T09:07:02;2.70;;;2.50;;
2438;SDS011;14509;47.992;7.848;2023-05-09T09:09:06;2.80;;;2.60;;
2438;SDS011;14509;47.992;7.848;2023-05-09T09:11:10;2.80;;;2.50;;
2438;SDS011;14509;47.992;7.848;2023-05-09T09:13:14;3.50;;;3.20;;
2438;SDS011;14509;47.992;7.848;2023-05-09T09:17:47;3.23;;;3.03;;
2438;SDS011;14509;47.992;7.848;2023-05-09T12:02:26;3.60;;;3.07;;
2438;SDS011;14509;47.992;7.848;2023-05-09T12:04:29;2.03;;;1.93;;
2438;SDS011;14509;47.992;7.848;2023-05-09T12:06:32;1.70;;;1.20;;
2438;SDS011;14509;47.992;7.848;2023-05-09T12:08:34;2.30;;;2.17;;
2438;SDS011;14509;47.992;7.848;2023-05-09T12:10:37;2.63;;;1.90;;
2438;SDS011;14509;47.992;7.848;2023-05-09T12:12:43;11.20;;;3.77;;
2438;SDS011;14509;47.992;7.848;2023-05-09T12:14:47;3.53;;;2.00;;
2438;SDS011;14509;47.992;7.848;2023-05-09T12:16:51;3.67;;;2.00;;
2438;SDS011;14509;47.992;7.848;2023-05-09T12:32:53;2.10;;;1.90;;
2438;SDS011;14509;47.992;7.848;2023-05-09T12:34:56;2.27;;;1.80;;
2438;SDS011;14509;47.992;7.848;2023-05-09T12:36:59;2.23;;;1.73;;
2438;SDS011;14509;47.992;7.848;2023-05-09T12:39:06;3.00;;;1.70;;
2438;SDS011;14509;47.992;7.848;2023-05-09T12:41:09;1.83;;;1.73;;
2438;SDS011;14509;47.992;7.848;2023-05-09T12:43:12;2.00;;;1.90;;
2438;SDS011;14509;47.992;7.848;2023-05-09T12:45:14;2.00;;;1.50;;
2438;SDS011;14509;47.992;7.848;2023-05-09T12:47:18;1.67;;;1.57;;
2438;SDS011;14509;47.992;7.848;2023-05-09T12:49:22;2.20;;;2.00;;
2438;SDS011;14509;47.992;7.848;2023-05-09T12:51:25;1.77;;;1.67;;
2438;SDS011;14509;47.992;7.848;2023-05-09T12:53:28;2.40;;;1.60;;
2438;SDS011;14509;47.992;7.848;2023-05-09T12:55:34;2.47;;;2.27;;
2438;SDS011;14509;47.992;7.848;2023-05-09T12:57:55;2.43;;;1.60;;
2438;SDS011;14509;47.992;7.848;2023-05-09T13:00:01;1.67;;;1.47;;
2438;SDS011;14509;47.992;7.848;2023-05-09T13:02:06;1.63;;;1.50;;
2438;SDS011;14509;47.992;7.848;2023-05-09T13:04:14;1.83;;;1.73;;
2438;SDS011;14509;47.992;7.848;2023-05-09T13:06:19;1.60;;;1.50;;
2438;SDS011;14509;47.992;7.848;2023-05-09T13:08:23;2.23;;;1.63;;
2438;SDS011;14509;47.992;7.848;2023-05-09T13:10:26;1.87;;;1.77;;
2438;SDS011;14509;47.992;7.848;2023-05-09T13:12:29;3.87;;;2.70;;
2438;SDS011;14509;47.992;7.848;2023-05-09T13:14:32;1.70;;;1.60;;
2438;SDS011;14509;47.992;7.848;2023-05-09T13:16:34;1.87;;;1.60;;
2438;SDS011;14509;47.992;7.848;2023-05-09T13:18:37;1.93;;;1.80;;
2438;SDS011;14509;47.992;7.848;2023-05-09T13:20:40;1.80;;;1.70;;
2438;SDS011;14509;47.992;7.848;2023-05-09T13:22:44;2.10;;;1.90;;
2438;SDS011;14509;47.992;7.848;2023-05-09T13:24:46;3.27;;;2.70;;
2438;SDS011;14509;47.992;7.848;2023-05-09T13:26:49;2.13;;;1.40;;
2438;SDS011;14509;47.992;7.848;2023-05-09T13:44:53;4.30;;;1.60;;
2438;SDS011;14509;47.992;7.848;2023-05-09T13:46:55;2.37;;;2.10;;
2438;SDS011;14509;47.992;7.848;2023-05-09T13:48:59;1.63;;;1.53;;
2438;SDS011;14509;47.992;7.848;2023-05-09T13:51:01;1.90;;;1.70;;
2438;SDS011;14509;47.992;7.848;2023-05-09T13:53:06;1.53;;;1.43;;
2438;SDS011;14509;47.992;7.848;2023-05-09T13:55:08;1.77;;;1.67;;
2438;SDS011;14509;47.992;7.848;2023-05-09T13:59:38;1.90;;;1.30;;
2438;SDS011;14509;47.992;7.848;2023-05-09T14:01:47;1.70;;;1.60;;
2438;SDS011;14509;47.992;7.848;2023-05-09T14:03:49;3.70;;;1.60;;
2438;SDS011;14509;47.992;7.848;2023-05-09T14:05:53;1.47;;;1.37;;
2438;SDS011;14509;47.992;7.848;2023-05-09T14:07:55;1.00;;;0.90;;
2438;SDS011;14509;47.992;7.848;2023-05-09T14:09:57;2.60;;;1.50;;
2438;SDS011;14509;47.992;7.848;2023-05-09T14:12:00;1.67;;;1.23;;
2438;SDS011;14509;47.992;7.848;2023-05-09T14:14:03;1.80;;;1.70;;
2438;SDS011;14509;47.992;7.848;2023-05-09T14:16:05;1.90;;;1.50;;
2438;SDS011;14509;47.992;7.848;2023-05-09T14:18:09;2.70;;;1.60;;
2438;SDS011;14509;47.992;7.848;2023-05-09T14:20:11;3.93;;;2.00;;
2438;SDS011;14509;47.992;7.848;2023-05-09T14:22:14;2.13;;;1.93;;
2438;SDS011;14509;47.992;7.848;2023-05-09T14:24:17;1.93;;;1.60;;
2438;SDS011;14509;47.992;7.848;2023-05-09T14:26:19;1.47;;;1.37;;
2438;SDS011;14509;47.992;7.848;2023-05-09T14:28:21;2.10;;;1.90;;
2438;SDS011;14509;47.992;7.848;2023-05-09T14:30:24;2.70;;;1.60;;
2438;SDS011;14509;47.992;7.848;2023-05-09T14:32:26;1.93;;;1.50;;
2438;SDS011;14509;47.992;7.848;2023-05-09T14:34:30;3.03;;;1.57;;
2438;SDS011;14509;47.992;7.848;2023-05-09T14:36:32;2.00;;;1.80;;
2438;SDS011;14509;47.992;7.848;2023-05-09T14:38:35;3.17;;;2.30;;
2438;SDS011;14509;47.992;7.848;2023-05-09T14:40:38;1.87;;;1.77;;
2438;SDS011;14509;47.992;7.848;2023-05-09T14:42:42;2.17;;;1.93;;
2438;SDS011;14509;47.992;7.848;2023-05-09T14:44:44;3.03;;;2.13;;
2438;SDS011;14509;47.992;7.848;2023-05-09T14:46:47;2.70;;;2.50;;
2438;SDS011;14509;47.992;7.848;2023-05-09T14:48:49;2.27;;;2.03;;
2438;SDS011;14509;47.992;7.848;2023-05-09T14:50:53;2.40;;;2.20;;
2438;SDS011;14509;47.992;7.848;2023-05-09T14:52:56;8.47;;;2.97;;
2438;SDS011;14509;47.992;7.848;2023-05-09T14:54:58;7.43;;;3.03;;
2438;SDS011;14509;47.992;7.848;2023-05-09T14:57:00;2.57;;;2.37;;
2438;SDS011;14509;47.992;7.848;2023-05-09T14:59:04;2.63;;;2.40;;
2438;SDS011;14509;47.992;7.848;2023-05-09T15:01:07;3.50;;;3.00;;
2438;SDS011;14509;47.992;7.848;2023-05-09T15:03:09;2.80;;;2.60;;
2438;SDS011;14509;47.992;7.848;2023-05-09T15:05:12;2.73;;;2.53;;
2438;SDS011;14509;47.992;7.848;2023-05-09T15:07:15;5.17;;;3.20;;
2438;SDS011;14509;47.992;7.848;2023-05-09T15:09:17;3.73;;;3.20;;
2438;SDS011;14509;47.992;7.848;2023-05-09T15:11:20;3.63;;;3.07;;
2438;SDS011;14509;47.992;7.848;2023-05-09T15:13:23;6.30;;;3.00;;
2438;SDS011;14509;47.992;7.848;2023-05-09T15:15:25;4.67;;;3.43;;
2438;SDS011;14509;47.992;7.848;2023-05-09T15:17:27;5.43;;;3.73;;
2438;SDS011;14509;47.992;7.848;2023-05-09T15:19:29;3.37;;;3.07;;
2438;SDS011;14509;47.992;7.848;2023-05-09T15:21:33;3.57;;;3.37;;
2438;SDS011;14509;47.992;7.848;2023-05-09T15:23:36;4.27;;;3.70;;
2438;SDS011;14509;47.992;7.848;2023-05-09T15:25:39;4.70;;;3.50;;
2438;SDS011;14509;47.992;7.848;2023-05-09T15:27:42;3.50;;;3.20;;
2438;SDS011;14509;47.992;7.848;2023-05-09T15:29:44;3.50;;;3.20;;
2438;SDS011;14509;47.992;7.848;2023-05-09T15:31:46;3.63;;;3.20;;
2438;SDS011;14509;47.992;7.848;2023-05-09T15:33:48;3.50;;;3.20;;
2438;SDS011;14509;47.992;7.848;2023-05-09T15:35:51;2.97;;;2.70;;
2438;SDS011;14509;47.992;7.848;2023-05-09T15:37:56;3.77;;;3.30;;
2438;SDS011;14509;47.992;7.848;2023-05-09T15:40:00;3.40;;;3.10;;
2438;SDS011;14509;47.992;7.848;2023-05-09T15:42:03;3.87;;;2.67;;
2438;SDS011;14509;47.992;7.848;2023-05-09T15:44:07;3.70;;;3.40;;
2438;SDS011;14509;47.992;7.848;2023-05-09T15:46:09;3.40;;;2.37;;
2438;SDS011;14509;47.992;7.848;2023-05-09T15:48:11;6.30;;;3.17;;
2438;SDS011;14509;47.992;7.848;2023-05-09T15:50:14;2.50;;;2.20;;
2438;SDS011;14509;47.992;7.848;2023-05-09T15:52:16;17.07;;;3.53;;
2438;SDS011;14509;47.992;7.848;2023-05-09T15:54:18;4.70;;;2.40;;
2438;SDS011;14509;47.992;7.848;2023-05-09T15:56:21;3.13;;;2.17;;
2438;SDS011;14509;47.992;7.848;2023-05-09T15:58:24;4.10;;;2.40;;
2438;SDS011;14509;47.992;7.848;2023-05-09T16:00:26;3.63;;;2.23;;
2438;SDS011;14509;47.992;7.848;2023-05-09T16:02:29;2.40;;;2.20;;
2438;SDS011;14509;47.992;7.848;2023-05-09T16:04:32;5.27;;;3.13;;
2438;SDS011;14509;47.992;7.848;2023-05-09T16:06:34;8.33;;;2.93;;
2438;SDS011;14509;47.992;7.848;2023-05-09T16:08:37;3.30;;;2.63;;
2438;SDS011;14509;47.992;7.848;2023-05-09T16:10:38;2.20;;;2.00;;
2438;SDS011;14509;47.992;7.848;2023-05-09T16:12:42;15.47;;;3.67;;
2438;SDS011;14509;47.992;7.848;2023-05-09T16:14:44;3.97;;;2.93;;
2438;SDS011;14509;47.992;7.848;2023-05-09T16:16:46;3.10;;;2.60;;
2438;SDS011;14509;47.992;7.848;2023-05-09T16:18:49;3.10;;;2.80;;
2438;SDS011;14509;47.992;7.848;2023-05-09T16:20:51;3.37;;;1.90;;
2438;SDS011;14509;47.992;7.848;2023-05-09T16:22:53;2.50;;;2.10;;
2438;SDS011;14509;47.992;7.848;2023-05-09T16:24:55;2.67;;;1.93;;
2438;SDS011;14509;47.992;7.848;2023-05-09T16:26:57;13.40;;;2.20;;
2438;SDS011;14509;47.992;7.848;2023-05-09T16:29:01;2.60;;;1.90;;
2438;SDS011;14509;47.992;7.848;2023-05-09T16:31:03;3.70;;;1.87;;
2438;SDS011;14509;47.992;7.848;2023-05-09T16:33:07;4.27;;;2.00;;
2438;SDS011;14509;47.992;7.848;2023-05-09T16:35:09;4.90;;;2.40;;
2438;SDS011;14509;47.992;7.848;2023-05-09T16:37:11;2.30;;;2.10;;
2438;SDS011;14509;47.992;7.848;2023-05-09T16:39:15;2.63;;;1.87;;
2438;SDS011;14509;47.992;7.848;2023-05-09T16:41:17;2.10;;;1.90;;
2438;SDS011;14509;47.992;7.848;2023-05-09T16:43:19;1.83;;;1.50;;
2438;SDS011;14509;47.992;7.848;2023-05-09T16:45:22;3.37;;;2.13;;
2438;SDS011;14509;47.992;7.848;2023-05-09T16:47:24;2.37;;;2.17;;
2438;SDS011;14509;47.992;7.848;2023-05-09T16:49:26;2.37;;;2.17;;
2438;SDS011;14509;47.992;7.848;2023-05-09T16:51:28;5.20;;;2.43;;
2438;SDS011;14509;47.992;7.848;2023-05-09T16:53:30;3.37;;;1.80;;
2438;SDS011;14509;47.992;7.848;2023-05-09T16:55:33;4.30;;;2.90;;
2438;SDS011;14509;47.992;7.848;2023-05-09T16:57:36;2.47;;;1.80;;
2438;SDS011;14509;47.992;7.848;2023-05-09T16:59:38;2.87;;;2.10;;
2438;SDS011;14509;47.992;7.848;2023-05-09T17:01:41;2.33;;;2.13;;
2438;SDS011;14509;47.992;7.848;2023-05-09T17:03:43;2.07;;;1.97;;
2438;SDS011;14509;47.992;7.848;2023-05-09T17:05:45;3.10;;;1.80;;
2438;SDS011;14509;47.992;7.848;2023-05-09T17:07:47;2.20;;;1.90;;
2438;SDS011;14509;47.992;7.848;2023-05-09T17:09:49;3.53;;;2.27;;
2438;SDS011;14509;47.992;7.848;2023-05-09T17:11:51;3.97;;;2.10;;
2438;SDS011;14509;47.992;7.848;2023-05-09T17:13:53;3.93;;;2.30;;
2438;SDS011;14509;47.992;7.848;2023-05-09T17:15:55;2.67;;;2.47;;
2438;SDS011;14509;47.992;7.848;2023-05-09T17:17:58;3.70;;;2.47;;
2438;SDS011;14509;47.992;7.848;2023-05-09T17:20:00;10.73;;;2.37;;
2438;SDS011;14509;47.992;7.848;2023-05-09T17:22:03;2.50;;;2.30;;
2438;SDS011;14509;47.992;7.848;2023-05-09T17:24:05;2.53;;;2.23;;
2438;SDS011;14509;47.992;7.848;2023-05-09T17:26:08;2.57;;;2.27;;
2438;SDS011;14509;47.992;7.848;2023-05-09T17:28:10;2.70;;;2.50;;
2438;SDS011;14509;47.992;7.848;2023-05-09T17:30:12;2.77;;;1.90;;
2438;SDS011;14509;47.992;7.848;2023-05-09T17:32:14;3.30;;;2.00;;
2438;SDS011;14509;47.992;7.848;2023-05-09T17:34:17;2.33;;;2.13;;
2438;SDS011;14509;47.992;7.848;2023-05-09T17:36:19;1.93;;;1.83;;
2438;SDS011;14509;47.992;7.848;2023-05-09T17:38:21;2.97;;;2.67;;
2438;SDS011;14509;47.992;7.848;2023-05-09T17:40:23;2.40;;;2.20;;
2438;SDS011;14509;47.992;7.848;2023-05-09T17:42:25;2.40;;;2.07;;
2438;SDS011;14509;47.992;7.848;2023-05-09T17:44:28;3.00;;;2.77;;
2438;SDS011;14509;47.992;7.848;2023-05-09T17:46:30;2.60;;;2.40;;
2438;SDS011;14509;47.992;7.848;2023-05-09T17:48:32;2.57;;;2.37;;
2438;SDS011;14509;47.992;7.848;2023-05-09T17:50:35;2.77;;;2.43;;
2438;SDS011;14509;47.992;7.848;2023-05-09T17:52:37;3.00;;;2.50;;
2438;SDS011;14509;47.992;7.848;2023-05-09T17:54:39;2.67;;;2.47;;
2438;SDS011;14509;47.992;7.848;2023-05-09T17:56:41;4.80;;;2.30;;
2438;SDS011;14509;47.992;7.848;2023-05-09T17:58:43;3.37;;;2.37;;
2438;SDS011;14509;47.992;7.848;2023-05-09T18:00:45;4.87;;;3.30;;
2438;SDS011;14509;47.992;7.848;2023-05-09T18:02:47;2.53;;;2.33;;
2438;SDS011;14509;47.992;7.848;2023-05-09T18:04:50;2.17;;;1.93;;
2438;SDS011;14509;47.992;7.848;2023-05-09T18:06:53;1.93;;;1.73;;
2438;SDS011;14509;47.992;7.848;2023-05-09T18:08:55;2.80;;;2.60;;
2438;SDS011;14509;47.992;7.848;2023-05-09T18:10:57;3.50;;;2.70;;
2438;SDS011;14509;47.992;7.848;2023-05-09T18:12:59;6.93;;;2.03;;
2438;SDS011;14509;47.992;7.848;2023-05-09T18:15:01;2.53;;;2.30;;
2438;SDS011;14509;47.992;7.848;2023-05-09T18:17:04;1.73;;;1.63;;
2438;SDS011;14509;47.992;7.848;2023-05-09T18:19:06;1.70;;;1.40;;
2438;SDS011;14509;47.992;7.848;2023-05-09T18:21:08;1.73;;;1.57;;
2438;SDS011;14509;47.992;7.848;2023-05-09T18:23:24;2.10;;;1.90;;
2438;SDS011;14509;47.992;7.848;2023-05-09T18:25:37;2.07;;;1.97;;
2438;SDS011;14509;47.992;7.848;2023-05-09T18:27:39;5.60;;;2.40;;
2438;SDS011;14509;47.992;7.848;2023-05-09T18:29:41;2.63;;;2.30;;
2438;SDS011;14509;47.992;7.848;2023-05-09T18:31:45;2.50;;;2.00;;
2438;SDS011;14509;47.992;7.848;2023-05-09T18:33:48;2.10;;;1.70;;
2438;SDS011;14509;47.992;7.848;2023-05-09T18:35:51;4.10;;;2.73;;
2438;SDS011;14509;47.992;7.848;2023-05-09T18:37:53;2.30;;;2.10;;
2438;SDS011;14509;47.992;7.848;2023-05-09T18:39:56;5.27;;;2.57;;
2438;SDS011;14509;47.992;7.848;2023-05-09T18:41:58;2.80;;;2.60;;
2438;SDS011;14509;47.992;7.848;2023-05-09T18:44:00;3.63;;;2.40;;
2438;SDS011;14509;47.992;7.848;2023-05-09T18:46:02;2.17;;;1.97;;
2438;SDS011;14509;47.992;7.848;2023-05-09T18:48:13;2.90;;;2.70;;
2438;SDS011;14509;47.992;7.848;2023-05-09T18:50:16;3.60;;;2.43;;
2438;SDS011;14509;47.992;7.848;2023-05-09T18:52:18;5.23;;;3.33;;
2438;SDS011;14509;47.992;7.848;2023-05-09T18:54:21;2.80;;;2.60;;
2438;SDS011;14509;47.992;7.848;2023-05-09T18:56:25;2.43;;;2.03;;
2438;SDS011;14509;47.992;7.848;2023-05-09T18:58:26;4.63;;;2.27;;
2438;SDS011;14509;47.992;7.848;2023-05-09T19:00:28;4.73;;;2.67;;
2438;SDS011;14509;47.992;7.848;2023-05-09T19:02:33;2.07;;;1.87;;
2438;SDS011;14509;47.992;7.848;2023-05-09T19:04:35;2.10;;;1.70;;
2438;SDS011;14509;47.992;7.848;2023-05-09T19:06:37;2.10;;;1.60;;
2438;SDS011;14509;47.992;7.848;2023-05-09T19:08:39;1.43;;;1.33;;
2438;SDS011;14509;47.992;7.848;2023-05-09T19:10:41;2.70;;;1.83;;
2438;SDS011;14509;47.992;7.848;2023-05-09T19:12:45;1.53;;;1.43;;
2438;SDS011;14509;47.992;7.848;2023-05-09T19:14:48;1.40;;;1.30;;
2438;SDS011;14509;47.992;7.848;2023-05-09T19:16:49;1.23;;;1.10;;
2438;SDS011;14509;47.992;7.848;2023-05-09T19:18:53;1.57;;;1.37;;
2438;SDS011;14509;47.992;7.848;2023-05-09T19:20:56;1.23;;;1.10;;
2438;SDS011;14509;47.992;7.848;2023-05-09T19:22:58;1.80;;;1.00;;
2438;SDS011;14509;47.992;7.848;2023-05-09T19:25:00;1.67;;;0.97;;
2438;SDS011;14509;47.992;7.848;2023-05-09T19:27:02;1.10;;;1.00;;
2438;SDS011;14509;47.992;7.848;2023-05-09T19:29:08;1.20;;;0.90;;
2438;SDS011;14509;47.992;7.848;2023-05-09T19:31:09;1.10;;;0.80;;
2438;SDS011;14509;47.992;7.848;2023-05-09T19:33:11;0.80;;;0.80;;
2438;SDS011;14509;47.992;7.848;2023-05-09T19:35:13;1.37;;;0.70;;
2438;SDS011;14509;47.992;7.848;2023-05-09T19:37:15;1.67;;;0.93;;
2438;SDS011;14509;47.992;7.848;2023-05-09T19:39:17;1.33;;;0.90;;
2438;SDS011;14509;47.992;7.848;2023-05-09T19:41:19;1.20;;;1.10;;
2438;SDS011;14509;47.992;7.848;2023-05-09T19:43:21;1.40;;;0.90;;
2438;SDS011;14509;47.992;7.848;2023-05-09T19:45:24;1.00;;;0.67;;
2438;SDS011;14509;47.992;7.848;2023-05-09T19:47:26;1.70;;;0.80;;
2438;SDS011;14509;47.992;7.848;2023-05-09T19:49:28;1.17;;;1.07;;
2438;SDS011;14509;47.992;7.848;2023-05-09T19:51:31;1.03;;;0.80;;
2438;SDS011;14509;47.992;7.848;2023-05-09T19:53:33;0.80;;;0.57;;
2438;SDS011;14509;47.992;7.848;2023-05-09T19:55:35;1.10;;;0.77;;
2438;SDS011;14509;47.992;7.848;2023-05-09T19:57:36;1.50;;;1.20;;
2438;SDS011;14509;47.992;7.848;2023-05-09T19:59:38;0.80;;;0.80;;
2438;SDS011;14509;47.992;7.848;2023-05-09T20:01:42;0.77;;;0.70;;
2438;SDS011;14509;47.992;7.848;2023-05-09T20:03:44;1.20;;;1.10;;
2438;SDS011;14509;47.992;7.848;2023-05-09T20:05:46;2.30;;;0.80;;
2438;SDS011;14509;47.992;7.848;2023-05-09T20:07:48;0.93;;;0.83;;
2438;SDS011;14509;47.992;7.848;2023-05-09T20:09:50;1.13;;;1.03;;
2438;SDS011;14509;47.992;7.848;2023-05-09T20:11:52;1.53;;;0.80;;
2438;SDS011;14509;47.992;7.848;2023-05-09T20:13:53;0.90;;;0.77;;
2438;SDS011;14509;47.992;7.848;2023-05-09T20:15:56;0.90;;;0.90;;
2438;SDS011;14509;47.992;7.848;2023-05-09T20:18:00;1.23;;;1.13;;
2438;SDS011;14509;47.992;7.848;2023-05-09T20:20:02;2.30;;;0.90;;
2438;SDS011;14509;47.992;7.848;2023-05-09T20:22:05;2.63;;;1.10;;
2438;SDS011;14509;47.992;7.848;2023-05-09T20:24:07;0.73;;;0.67;;
2438;SDS011;14509;47.992;7.848;2023-05-09T20:26:10;0.90;;;0.73;;
2438;SDS011;14509;47.992;7.848;2023-05-09T20:28:12;0.73;;;0.73;;
2438;SDS011;14509;47.992;7.848;2023-05-09T20:30:19;0.90;;;0.73;;
2438;SDS011;14509;47.992;7.848;2023-05-09T20:32:21;1.23;;;1.13;;
2438;SDS011;14509;47.992;7.848;2023-05-09T20:34:24;0.70;;;0.53;;
2438;SDS011;14509;47.992;7.848;2023-05-09T20:36:26;1.27;;;1.00;;
2438;SDS011;14509;47.992;7.848;2023-05-09T20:38:28;0.70;;;0.60;;
2438;SDS011;14509;47.992;7.848;2023-05-09T20:40:30;0.73;;;0.73;;
2438;SDS011;14509;47.992;7.848;2023-05-09T20:42:32;0.57;;;0.57;;
2438;SDS011;14509;47.992;7.848;2023-05-09T20:44:34;1.20;;;0.80;;
2438;SDS011;14509;47.992;7.848;2023-05-09T20:46:36;3.17;;;0.97;;
2438;SDS011;14509;47.992;7.848;2023-05-09T20:48:39;0.87;;;0.73;;
2438;SDS011;14509;47.992;7.848;2023-05-09T20:50:42;0.90;;;0.80;;
2438;SDS011;14509;47.992;7.848;2023-05-09T20:52:44;0.70;;;0.57;;
2438;SDS011;14509;47.992;7.848;2023-05-09T20:54:46;0.87;;;0.57;;
2438;SDS011;14509;47.992;7.848;2023-05-09T20:56:48;0.60;;;0.60;;
2438;SDS011;14509;47.992;7.848;2023-05-09T20:58:53;1.13;;;0.73;;
2438;SDS011;14509;47.992;7.848;2023-05-09T21:00:55;0.83;;;0.77;;
2438;SDS011;14509;47.992;7.848;2023-05-09T21:02:57;1.07;;;0.73;;
2438;SDS011;14509;47.992;7.848;2023-05-09T21:04:59;2.00;;;0.90;;
2438;SDS011;14509;47.992;7.848;2023-05-09T21:07:02;0.80;;;0.80;;
2438;SDS011;14509;47.992;7.848;2023-05-09T21:09:04;5.67;;;0.93;;
2438;SDS011;14509;47.992;7.848;2023-05-09T21:11:08;0.90;;;0.60;;
2438;SDS011;14509;47.992;7.848;2023-05-09T21:13:10;1.33;;;0.53;;